KCVN/CVN METAR and TAF weather

Enter ICAO airport designator
Station Type Date Time Source
KCVN METAR 2018/10/21 03:56 UTC NOAA

KCVN 210356Z AUTO 15005KT 10SM CLR 08/04 A3044 RMK AO2 SLP299 T00780039


Station Type Date Time Source
KCVN Decoded METAR 2018/10/21 03:56 UTC NOAA

Clovis, Clovis Municipal Airport, NM, United States (KCVN) 34-26N 103-05W
Oct 20, 2018 - 11:56 PM EDT / 2018.10.21 0356 UTC
Wind: from the SSE (150 degrees) at 6 MPH (5 KT):0
Visibility: 10 mile(s):0
Sky conditions: clear
Temperature: 46.0 F (7.8 C)
Dew Point: 39.0 F (3.9 C)
Relative Humidity: 76%
Pressure (altimeter): 30.44 in. Hg (1030 hPa)
ob: KCVN 210356Z AUTO 15005KT 10SM CLR 08/04 A3044 RMK AO2 SLP299 T00780039
cycle: 4

Station Type Date Time Source
KCVN TAF UTC NOAA

Error!


Example: see airport list